Time;durP1;ratioP1;P1;durP2;ratioP2;P2;SDS_P1;SDS_P2;PMS_P1;PMS_P2;Temp;Humidity;BMP_temperature;BMP_pressure;BME280_temperature;BME280_humidity;BME280_pressure;Samples;Min_cycle;Max_cycle;Signal;HPM_P1;HPM_P2
2022/10/07 00:01:54;;;;;;;22.27;10.48;;;;;;;7.31;81.73;102310.45;2067478;69;21008;-72
2022/10/07 00:04:23;;;;;;;26.73;11.80;;;;;;;7.29;81.96;102311.77;1977806;72;21547;-77
2022/10/07 00:06:51;;;;;;;27.32;12.23;;;;;;;7.26;82.16;102306.52;1953701;73;21034;-76
2022/10/07 00:09:20;;;;;;;27.35;12.10;;;;;;;7.25;82.58;102311.33;1953553;73;21172;-73
2022/10/07 00:11:48;;;;;;;18.23;9.30;;;;;;;7.25;82.72;102312.64;1953379;73;21128;-74
2022/10/07 00:14:17;;;;;;;28.60;11.88;;;;;;;7.25;82.44;102315.67;1953436;73;21205;-70
2022/10/07 00:16:46;;;;;;;21.55;10.70;;;;;;;7.23;82.31;102317.02;1953712;73;21029;-67
2022/10/07 00:19:15;;;;;;;23.90;11.57;;;;;;;7.22;82.11;102320.94;1953823;73;21118;-68
2022/10/07 00:21:43;;;;;;;26.17;11.05;;;;;;;7.20;82.02;102319.62;1953512;73;21120;-66
2022/10/07 00:24:14;;;;;;;24.70;11.08;;;;;;;7.15;82.01;102321.36;1953583;73;21054;-70
2022/10/07 00:26:43;;;;;;;21.97;10.63;;;;;;;7.10;82.22;102319.16;1953600;73;21104;-75
2022/10/07 00:29:11;;;;;;;21.70;9.98;;;;;;;7.06;82.28;102313.50;1953621;73;21059;-78
2022/10/07 00:31:40;;;;;;;25.55;11.83;;;;;;;7.03;81.96;102314.37;1953473;73;21021;-69
2022/10/07 00:34:11;;;;;;;22.87;10.38;;;;;;;7.01;81.89;102309.99;1939656;73;21373;-70
2022/10/07 00:36:40;;;;;;;25.50;10.68;;;;;;;6.99;81.74;102306.09;1938741;73;21200;-71
2022/10/07 00:39:12;;;;;;;21.60;9.55;;;;;;;6.96;81.56;102307.39;1880794;75;21152;-70
2022/10/07 00:41:44;;;;;;;22.98;10.00;;;;;;;6.92;81.51;102311.74;1915880;74;21099;-70
2022/10/07 00:44:36;;;;;;;24.40;10.38;;;;;;;6.89;81.37;102305.19;1927320;74;21003;-70
2022/10/07 00:47:05;;;;;;;26.62;10.88;;;;;;;6.87;81.47;102301.69;1932884;74;21108;-64
2022/10/07 00:49:43;;;;;;;25.52;11.43;;;;;;;6.85;81.38;102304.75;1911318;74;21438;-63
2022/10/07 00:52:15;;;;;;;23.18;10.70;;;;;;;6.83;81.32;102302.56;1920843;72;21050;-64
2022/10/07 00:54:46;;;;;;;27.80;11.28;;;;;;;6.79;81.65;102306.47;1935017;74;21026;-64
2022/10/07 00:57:15;;;;;;;24.87;10.48;;;;;;;6.73;81.86;102311.26;1947739;73;20994;-63
2022/10/07 00:59:44;;;;;;;23.07;9.35;;;;;;;6.68;81.92;102303.41;1930187;74;21110;-68
2022/10/07 01:02:12;;;;;;;22.80;10.30;;;;;;;6.69;81.82;102300.35;1913763;75;21015;-66
2022/10/07 01:04:43;;;;;;;24.72;11.05;;;;;;;6.66;81.65;102301.23;1913864;75;21035;-64
2022/10/07 01:07:17;;;;;;;21.42;9.03;;;;;;;6.64;81.69;102301.67;1933860;74;21027;-63
2022/10/07 01:09:45;;;;;;;19.75;9.45;;;;;;;6.62;81.66;102306.03;1940644;73;21028;-64
2022/10/07 01:12:25;;;;;;;25.15;11.08;;;;;;;6.61;81.70;102303.41;1940808;74;21491;-67
2022/10/07 01:15:04;;;;;;;28.42;10.50;;;;;;;6.57;81.94;102307.31;1940783;74;21055;-65
2022/10/07 01:17:52;;;;;;;18.60;10.43;;;;;;;6.54;82.24;102310.35;1939878;73;21030;-68
2022/10/07 01:20:44;;;;;;;23.47;10.58;;;;;;;6.49;82.12;102314.28;1930379;74;21073;-66
2022/10/07 01:23:43;;;;;;;25.55;12.60;;;;;;;6.49;82.33;102309.05;1905126;74;21050;-67
2022/10/07 01:26:38;;;;;;;24.05;11.78;;;;;;;6.48;82.75;102307.28;1947563;74;21022;-68
2022/10/07 01:29:12;;;;;;;20.90;10.72;;;;;;;6.44;83.06;102312.08;1947646;73;21022;-66
2022/10/07 01:31:46;;;;;;;21.97;10.50;;;;;;;6.42;83.13;102307.28;1938604;74;21066;-66
2022/10/07 01:34:17;;;;;;;24.90;11.03;;;;;;;6.42;82.75;102310.30;1947900;72;21128;-66
2022/10/07 01:36:49;;;;;;;25.77;10.15;;;;;;;6.42;82.54;102309.89;1951463;72;21087;-65
2022/10/07 01:39:21;;;;;;;20.50;9.30;;;;;;;6.40;82.36;102303.78;1921339;73;21038;-69
2022/10/07 01:41:51;;;;;;;16.27;7.75;;;;;;;6.37;82.21;102303.77;1928301;74;21459;-71
2022/10/07 01:44:20;;;;;;;22.45;7.95;;;;;;;6.33;82.17;102305.94;1926198;74;21319;-66
2022/10/07 01:46:48;;;;;;;21.05;8.78;;;;;;;6.31;82.05;102302.00;1950102;73;21455;-68
2022/10/07 01:49:17;;;;;;;20.17;10.05;;;;;;;6.29;82.04;102300.23;1949992;73;21047;-70
2022/10/07 01:51:50;;;;;;;17.73;10.25;;;;;;;6.27;82.44;102299.35;1951132;73;21018;-67
2022/10/07 01:54:28;;;;;;;22.50;8.70;;;;;;;6.24;82.60;102303.28;1951515;73;21030;-70
2022/10/07 01:57:06;;;;;;;24.98;10.50;;;;;;;6.17;82.49;102300.63;1949131;73;21120;-62
2022/10/07 01:59:46;;;;;;;22.35;9.88;;;;;;;6.12;82.65;102305.39;1935906;73;21038;-61
2022/10/07 02:02:24;;;;;;;23.02;9.70;;;;;;;6.11;82.70;102307.59;1916434;74;21151;-62
2022/10/07 02:04:58;;;;;;;22.98;11.20;;;;;;;6.11;82.59;102301.91;1917976;75;21143;-63
2022/10/07 02:07:47;;;;;;;18.05;8.80;;;;;;;6.08;82.76;102304.50;1925678;73;21123;-63
2022/10/07 02:10:22;;;;;;;22.58;9.15;;;;;;;6.10;82.79;102306.69;1950843;73;21156;-65
2022/10/07 02:12:54;;;;;;;17.60;9.38;;;;;;;6.10;82.58;102308.00;1951501;73;21465;-66
2022/10/07 02:15:34;;;;;;;29.15;12.88;;;;;;;6.10;82.44;102306.69;1949805;73;21054;-66
2022/10/07 02:18:06;;;;;;;34.78;19.90;;;;;;;6.08;82.37;102301.02;1951400;72;21472;-65
2022/10/07 02:20:38;;;;;;;29.10;15.03;;;;;;;6.06;82.30;102310.16;1951556;73;21461;-65
2022/10/07 02:23:10;;;;;;;25.62;10.63;;;;;;;6.05;82.26;102312.36;1951741;73;21048;-65
2022/10/07 02:25:41;;;;;;;;;;;;;;;6.04;82.37;102311.03;1954757;73;21167;-67
2022/10/07 02:28:12;;;;;;;22.60;10.15;;;;;;;6.03;82.27;102311.89;1949900;72;20105;-66
2022/10/07 02:30:44;;;;;;;22.17;9.60;;;;;;;5.98;82.50;102307.95;1951727;73;21086;-66
2022/10/07 02:33:15;;;;;;;20.92;9.28;;;;;;;5.95;82.57;102307.90;1951944;73;21098;-67
2022/10/07 02:35:59;;;;;;;21.75;9.05;;;;;;;5.91;82.64;102313.98;1948420;73;21128;-66
2022/10/07 02:38:28;;;;;;;20.72;9.60;;;;;;;5.87;82.61;102309.61;1947931;73;21062;-68
2022/10/07 02:41:34;;;;;;;22.07;8.88;;;;;;;5.85;82.87;102308.29;1967967;72;21416;-67
2022/10/07 02:44:13;;;;;;;19.32;9.23;;;;;;;5.84;83.28;102312.20;1938794;71;21116;-68
2022/10/07 02:47:18;;;;;;;25.72;10.05;;;;;;;5.80;83.24;102310.00;1924600;74;21121;-68
2022/10/07 02:49:52;;;;;;;19.60;9.03;;;;;;;5.78;83.39;102306.06;1862775;74;21230;-66
2022/10/07 02:52:22;;;;;;;21.12;9.08;;;;;;;5.79;83.39;102307.83;1842790;78;21586;-66
2022/10/07 02:54:58;;;;;;;28.57;10.32;;;;;;;5.79;83.22;102305.21;1842863;78;21070;-66
2022/10/07 02:57:30;;;;;;;24.00;10.25;;;;;;;5.80;83.09;102301.71;1842489;78;21125;-65
2022/10/07 03:00:01;;;;;;;18.30;9.08;;;;;;;5.79;83.08;102301.29;1842859;78;21462;-67
2022/10/07 03:02:41;;;;;;;22.67;8.40;;;;;;;5.78;82.95;102299.97;1842141;78;21050;-71
2022/10/07 03:05:13;;;;;;;21.70;10.40;;;;;;;5.75;82.90;102294.71;1843990;77;21095;-69
2022/10/07 03:07:42;;;;;;;18.40;10.30;;;;;;;5.72;82.79;102296.02;1842884;78;21019;-68
2022/10/07 03:10:11;;;;;;;22.82;11.22;;;;;;;5.71;82.79;102300.35;1842704;78;21529;-69
2022/10/07 03:12:41;;;;;;;22.48;9.43;;;;;;;5.69;82.80;102296.86;1842795;78;21043;-66
2022/10/07 03:15:10;;;;;;;23.85;10.85;;;;;;;5.67;82.85;102298.59;1842703;78;21051;-68
2022/10/07 03:17:40;;;;;;;24.18;10.88;;;;;;;5.63;83.11;102298.14;1842868;78;21055;-69
2022/10/07 03:20:10;;;;;;;20.05;9.90;;;;;;;5.60;83.12;102293.75;1842794;78;21051;-70
2022/10/07 03:22:39;;;;;;;28.10;12.60;;;;;;;5.58;83.31;102298.09;1842902;78;21082;-71
2022/10/07 03:25:08;;;;;;;33.30;13.93;;;;;;;5.57;83.48;102303.30;1842784;78;21057;-70
2022/10/07 03:27:38;;;;;;;21.27;10.35;;;;;;;5.55;83.95;102296.78;1842954;78;21079;-66
2022/10/07 03:30:08;;;;;;;25.80;10.72;;;;;;;5.55;84.37;102299.80;1842814;78;21490;-66
2022/10/07 03:32:40;;;;;;;31.25;11.15;;;;;;;5.55;84.65;102301.11;1842808;78;21059;-67
2022/10/07 03:35:09;;;;;;;32.58;11.20;;;;;;;5.55;84.75;102302.42;1842789;78;21047;-68
2022/10/07 03:37:39;;;;;;;24.63;10.85;;;;;;;5.57;84.63;102298.08;1842684;78;21160;-68
2022/10/07 03:40:10;;;;;;;20.48;9.15;;;;;;;5.58;84.46;102298.09;1842825;78;21156;-66
2022/10/07 03:42:40;;;;;;;25.90;10.82;;;;;;;5.62;84.32;102296.38;1842069;78;21043;-66
2022/10/07 03:45:09;;;;;;;22.98;10.40;;;;;;;5.65;84.09;102292.48;1840342;78;21121;-68
2022/10/07 03:47:38;;;;;;;20.40;9.58;;;;;;;5.67;84.02;102292.06;1841234;78;21093;-67
2022/10/07 03:50:08;;;;;;;26.90;10.55;;;;;;;5.67;83.88;102289.45;1853951;76;21486;-71
2022/10/07 03:52:38;;;;;;;24.95;10.32;;;;;;;5.69;83.86;102290.33;1840275;76;21079;-70
2022/10/07 03:55:09;;;;;;;16.50;9.23;;;;;;;5.72;83.77;102286.88;1836666;77;21155;-67
2022/10/07 03:57:56;;;;;;;15.98;8.38;;;;;;;5.76;83.72;102292.55;1832903;78;21523;-66
2022/10/07 04:00:37;;;;;;;22.02;10.28;;;;;;;5.79;83.64;102289.53;1839888;73;21144;-64
2022/10/07 04:03:08;;;;;;;25.77;10.13;;;;;;;5.84;83.51;102289.98;1816273;77;21153;-62
2022/10/07 04:05:38;;;;;;;20.05;8.63;;;;;;;5.84;83.59;102283.44;1780657;79;21574;-61
2022/10/07 04:08:09;;;;;;;22.48;10.23;;;;;;;5.82;83.62;102286.05;1818042;78;21057;-62
2022/10/07 04:10:39;;;;;;;20.23;9.65;;;;;;;5.84;83.78;102288.67;1857299;77;21107;-67
2022/10/07 04:13:08;;;;;;;17.87;7.87;;;;;;;5.87;83.89;102289.56;1786206;80;21465;-66
2022/10/07 04:15:39;;;;;;;22.27;9.00;;;;;;;5.93;83.75;102279.56;1806225;79;21139;-66
2022/10/07 04:18:11;;;;;;;23.62;10.78;;;;;;;5.97;83.87;102285.28;1811257;79;21055;-68
2022/10/07 04:20:41;;;;;;;24.77;10.23;;;;;;;6.03;83.98;102282.71;1817438;79;21541;-66
2022/10/07 04:23:10;;;;;;;21.65;9.63;;;;;;;6.09;83.99;102277.50;1817142;79;21059;-67
2022/10/07 04:25:44;;;;;;;22.30;10.13;;;;;;;6.17;83.91;102280.14;1817306;79;21051;-67
2022/10/07 04:28:17;;;;;;;20.57;9.53;;;;;;;6.27;83.69;102283.66;1817181;79;21148;-67
2022/10/07 04:30:50;;;;;;;19.32;9.75;;;;;;;6.38;83.68;102284.56;1801941;79;21227;-67
2022/10/07 04:33:22;;;;;;;21.62;10.03;;;;;;;6.47;83.52;102283.72;1783857;80;21039;-67
2022/10/07 04:35:52;;;;;;;19.30;8.45;;;;;;;6.53;83.48;102282.01;1779677;80;21106;-69
2022/10/07 04:38:21;;;;;;;14.85;7.97;;;;;;;6.63;83.35;102283.34;1817330;79;21181;-66
2022/10/07 04:40:50;;;;;;;18.32;8.75;;;;;;;6.73;83.14;102283.77;1817387;79;21058;-66
2022/10/07 04:43:23;;;;;;;16.35;7.62;;;;;;;6.80;82.94;102288.59;1816494;79;21062;-66
2022/10/07 04:46:08;;;;;;;14.83;7.47;;;;;;;6.85;82.80;102287.73;1816540;79;21073;-66
2022/10/07 04:48:38;;;;;;;16.67;7.60;;;;;;;6.94;82.57;102288.19;1816923;79;21085;-66
2022/10/07 04:51:09;;;;;;;15.38;7.55;;;;;;;7.02;82.42;102278.57;1817471;79;21031;-66
2022/10/07 04:53:39;;;;;;;23.25;8.78;;;;;;;7.13;82.27;102281.20;1792288;79;21065;-67
2022/10/07 04:56:09;;;;;;;21.73;9.18;;;;;;;7.25;82.12;102281.62;1787917;80;21026;-66
2022/10/07 04:58:38;;;;;;;18.57;8.80;;;;;;;7.32;82.00;102277.71;1820065;79;21097;-67
2022/10/07 05:01:09;;;;;;;16.90;8.30;;;;;;;7.42;81.97;102279.88;1819812;79;21082;-68
2022/10/07 05:03:40;;;;;;;29.65;8.60;;;;;;;7.52;82.00;102276.79;1815862;79;21071;-67
2022/10/07 05:06:11;;;;;;;20.55;8.73;;;;;;;7.66;81.85;102279.40;1815957;79;21157;-67
2022/10/07 05:08:43;;;;;;;18.12;8.80;;;;;;;7.83;81.69;102276.73;1815904;79;21517;-67
2022/10/07 05:11:12;;;;;;;18.07;8.50;;;;;;;8.02;81.62;102274.48;1816072;79;21098;-68
2022/10/07 05:13:43;;;;;;;19.52;9.15;;;;;;;8.30;81.45;102269.12;1813627;79;21174;-68
2022/10/07 05:16:11;;;;;;;17.95;8.60;;;;;;;8.84;81.01;102280.63;1815611;79;21161;-66
2022/10/07 05:18:40;;;;;;;22.42;8.60;;;;;;;9.61;80.81;102275.57;1816936;79;21083;-66
2022/10/07 05:21:11;;;;;;;17.15;8.10;;;;;;;10.42;81.17;102275.48;1817113;79;21092;-67
2022/10/07 05:23:41;;;;;;;21.00;7.70;;;;;;;10.92;82.04;102270.35;1813894;79;21225;-66
2022/10/07 05:26:14;;;;;;;16.12;8.20;;;;;;;11.13;82.70;102270.01;1790405;79;21158;-66
2022/10/07 05:28:45;;;;;;;15.20;7.53;;;;;;;11.19;82.49;102273.88;1790360;80;21158;-66
2022/10/07 05:31:15;;;;;;;18.32;8.58;;;;;;;11.19;81.71;102265.97;1790489;79;21092;-66
2022/10/07 05:33:48;;;;;;;20.55;8.65;;;;;;;11.24;80.64;102267.66;1793698;79;21083;-66
2022/10/07 05:36:18;;;;;;;16.80;8.10;;;;;;;11.39;79.41;102272.19;1815837;79;21134;-67
2022/10/07 05:38:48;;;;;;;18.67;8.85;;;;;;;11.73;78.43;102262.77;1815828;79;21150;-67
2022/10/07 05:41:18;;;;;;;22.70;8.95;;;;;;;12.29;77.46;102268.69;1815965;79;21165;-67
2022/10/07 05:43:47;;;;;;;19.30;7.45;;;;;;;13.02;76.74;102262.60;1815648;79;21106;-67
2022/10/07 05:46:22;;;;;;;24.45;9.50;;;;;;;13.83;76.57;102264.89;1816263;79;21658;-68
2022/10/07 05:48:53;;;;;;;17.10;8.28;;;;;;;14.73;76.48;102260.43;1816613;79;21521;-68
2022/10/07 05:51:25;;;;;;;20.30;9.13;;;;;;;15.70;75.37;102251.81;1790762;79;21541;-67
2022/10/07 05:53:56;;;;;;;26.57;9.53;;;;;;;16.55;74.10;102254.80;1790726;80;21151;-67
2022/10/07 05:56:26;;;;;;;24.72;9.50;;;;;;;17.18;72.97;102260.20;1803400;79;21171;-66
2022/10/07 05:58:59;;;;;;;20.23;8.45;;;;;;;17.84;71.72;102254.25;1815103;79;21112;-67
2022/10/07 06:01:29;;;;;;;20.40;9.00;;;;;;;18.60;70.20;102255.59;1817419;79;21148;-67
2022/10/07 06:03:59;;;;;;;22.75;8.50;;;;;;;19.29;68.77;102252.13;1819510;78;21207;-67
2022/10/07 06:06:30;;;;;;;23.47;9.08;;;;;;;19.70;67.93;102249.11;1817803;77;21175;-67
2022/10/07 06:13:06;;;;;;;17.15;8.68;;;;;;;20.04;67.00;102242.80;1820131;79;21096;-67
2022/10/07 06:14:16;;;;;;;16.48;9.23;;;;;;;20.40;65.21;102241.70;1820102;78;21175;-67
2022/10/07 06:16:45;;;;;;;17.20;9.00;;;;;;;20.78;64.58;102245.34;1817992;79;21093;-66
2022/10/07 06:19:21;;;;;;;17.37;9.30;;;;;;;21.08;63.04;102251.20;1820265;79;21056;-66
2022/10/07 06:21:44;;;;;;;23.83;9.20;;;;;;;21.35;61.77;102245.97;1819470;78;21053;-66
2022/10/07 06:24:13;;;;;;;19.07;8.83;;;;;;;21.75;60.50;102242.70;1820274;79;21046;-70
2022/10/07 06:26:42;;;;;;;19.75;9.15;;;;;;;22.02;58.73;102245.92;1818086;79;21076;-66
2022/10/07 06:29:11;;;;;;;19.02;8.65;;;;;;;22.41;57.34;102252.39;1820363;79;21212;-67
2022/10/07 06:31:41;;;;;;;15.30;8.55;;;;;;;22.78;55.70;102252.64;1820238;78;21511;-67
2022/10/07 06:34:09;;;;;;;15.95;8.78;;;;;;;22.81;54.05;102251.10;1811336;79;21166;-67
2022/10/07 06:36:38;;;;;;;20.90;8.25;;;;;;;22.82;52.87;102245.63;1790715;80;21084;-67
2022/10/07 06:39:07;;;;;;;18.90;7.70;;;;;;;23.03;52.33;102240.63;1790503;80;21189;-67
2022/10/07 06:41:37;;;;;;;18.42;8.30;;;;;;;23.16;51.01;102243.36;1810789;79;21679;-67
2022/10/07 06:44:11;;;;;;;19.15;7.62;;;;;;;23.25;50.08;102241.38;1783095;80;21090;-67
2022/10/07 06:46:40;;;;;;;21.82;8.45;;;;;;;23.49;49.48;102236.61;1820636;77;21100;-67
2022/10/07 06:49:09;;;;;;;23.50;9.23;;;;;;;23.96;49.09;102231.52;1820305;79;21056;-67
2022/10/07 06:51:39;;;;;;;24.67;10.78;;;;;;;24.14;47.91;102227.49;1820163;79;21585;-67
2022/10/07 06:54:08;;;;;;;32.30;13.98;;;;;;;24.37;47.59;102220.42;1820211;78;21150;-67
2022/10/07 06:56:38;;;;;;;21.95;11.95;;;;;;;24.62;46.71;102228.03;1768603;80;21137;-67
2022/10/07 06:59:07;;;;;;;33.88;12.78;;;;;;;24.65;45.67;102223.78;1820342;79;21861;-67
2022/10/07 07:01:46;;;;;;;29.27;12.63;;;;;;;24.74;45.28;102218.19;1819497;77;21137;-67
2022/10/07 07:04:15;;;;;;;27.32;14.68;;;;;;;24.80;44.05;102227.14;1836246;77;21140;-67
2022/10/07 07:06:43;;;;;;;21.10;11.45;;;;;;;24.99;43.60;102222.07;1810559;79;21130;-67
2022/10/07 07:09:12;;;;;;;22.90;10.85;;;;;;;25.37;43.46;102212.84;1810506;79;21113;-67
2022/10/07 07:11:44;;;;;;;20.80;10.20;;;;;;;25.49;42.92;102209.69;1840617;77;21548;-69
2022/10/07 07:14:14;;;;;;;17.82;7.70;;;;;;;25.66;42.53;102214.23;1840125;77;21188;-69
2022/10/07 07:16:44;;;;;;;20.00;7.40;;;;;;;25.55;41.83;102204.30;1773250;81;21295;-68
2022/10/07 07:19:14;;;;;;;10.20;4.83;;;;;;;25.66;41.40;102200.25;1818184;79;21150;-68
2022/10/07 07:21:43;;;;;;;10.38;5.03;;;;;;;25.61;40.57;102203.30;1773734;81;21078;-68
2022/10/07 07:24:14;;;;;;;10.18;4.75;;;;;;;25.23;38.79;102193.73;1836928;77;21099;-67
2022/10/07 07:26:43;;;;;;;9.45;4.58;;;;;;;25.26;39.01;102193.97;1841959;77;21554;-67
2022/10/07 07:29:19;;;;;;;9.50;4.42;;;;;;;25.24;38.29;102187.84;1848704;77;21160;-67
2022/10/07 07:31:45;;;;;;;9.80;4.75;;;;;;;25.28;38.05;102187.11;1846668;77;21162;-67
2022/10/07 07:34:14;;;;;;;9.03;4.37;;;;;;;25.52;38.29;102185.66;1848800;77;21061;-67
2022/10/07 07:36:50;;;;;;;8.95;4.42;;;;;;;25.92;37.76;102190.06;1846255;77;21089;-68
2022/10/07 07:39:20;;;;;;;9.25;4.40;;;;;;;26.01;36.87;102189.81;1848907;77;21119;-69
2022/10/07 07:41:51;;;;;;;9.70;4.60;;;;;;;25.98;36.94;102186.00;1846481;77;21113;-68
2022/10/07 07:44:22;;;;;;;9.43;3.87;;;;;;;26.16;36.29;102176.39;1848839;77;21065;-67
2022/10/07 07:46:51;;;;;;;8.08;4.15;;;;;;;26.31;36.65;102181.00;1846528;77;21613;-66
2022/10/07 07:49:23;;;;;;;9.40;4.25;;;;;;;26.46;36.30;102186.96;1848730;77;21078;-66
2022/10/07 07:51:52;;;;;;;10.93;5.67;;;;;;;26.79;36.34;102179.72;1848889;76;21081;-67
2022/10/07 07:54:24;;;;;;;7.70;4.30;;;;;;;27.04;35.24;102177.12;1847585;77;21120;-67
2022/10/07 07:56:54;;;;;;;6.80;3.90;;;;;;;27.23;35.15;102165.55;1842502;78;21038;-67
2022/10/07 07:59:24;;;;;;;6.90;4.28;;;;;;;27.30;33.99;102161.86;1840603;78;21038;-67
2022/10/07 08:01:54;;;;;;;9.75;4.05;;;;;;;26.99;33.43;102165.00;1840639;77;21046;-67
2022/10/07 08:04:23;;;;;;;8.60;4.75;;;;;;;26.91;33.63;102162.46;1832545;77;21161;-67
2022/10/07 08:06:54;;;;;;;6.85;3.50;;;;;;;26.92;33.89;102161.45;1819744;79;21529;-67
2022/10/07 08:09:24;;;;;;;7.75;3.70;;;;;;;26.95;33.33;102152.24;1820212;79;21076;-67
2022/10/07 08:11:55;;;;;;;10.00;4.35;;;;;;;26.95;33.44;102145.48;1820275;79;21045;-67
2022/10/07 08:14:24;;;;;;;11.33;4.62;;;;;;;27.29;33.58;102150.16;1820226;79;21565;-67
2022/10/07 08:16:56;;;;;;;11.43;4.10;;;;;;;27.56;32.91;102148.72;1819844;79;21074;-67
2022/10/07 08:19:24;;;;;;;4.33;2.77;;;;;;;27.59;32.43;102145.71;1820215;78;21191;-67
2022/10/07 08:21:54;;;;;;;9.93;4.22;;;;;;;27.56;32.17;102140.59;1820287;79;21133;-67
2022/10/07 08:24:25;;;;;;;10.60;3.42;;;;;;;27.54;32.40;102139.88;1820112;78;21097;-67
2022/10/07 08:26:54;;;;;;;10.38;4.03;;;;;;;27.69;32.13;102138.49;1820054;78;21190;-67
2022/10/07 08:29:23;;;;;;;9.68;3.52;;;;;;;27.82;32.23;102130.63;1820118;79;21077;-65
2022/10/07 08:31:52;;;;;;;6.58;3.65;;;;;;;28.46;32.20;102130.12;1820271;79;21105;-65
2022/10/07 08:34:21;;;;;;;5.95;3.35;;;;;;;28.55;31.81;102124.86;1820268;78;21057;-65
2022/10/07 08:36:50;;;;;;;10.32;3.15;;;;;;;28.52;31.42;102116.50;1820025;79;21137;-64
2022/10/07 08:39:19;;;;;;;4.72;2.87;;;;;;;28.35;30.79;102112.67;1820232;79;21543;-64
2022/10/07 08:41:59;;;;;;;4.97;1.95;;;;;;;28.23;30.46;102112.45;1819223;79;21039;-65
2022/10/07 08:44:34;;;;;;;8.70;3.47;;;;;;;27.95;30.14;102105.53;1818380;79;21114;-65
2022/10/07 08:47:22;;;;;;;5.08;3.05;;;;;;;27.67;30.19;102103.11;1818509;78;21149;-66
2022/10/07 08:50:06;;;;;;;2.87;2.02;;;;;;;27.94;30.64;102106.52;1816495;79;21489;-66
2022/10/07 08:52:41;;;;;;;5.58;2.87;;;;;;;28.19;30.22;102109.68;1814284;79;21058;-66
2022/10/07 08:55:19;;;;;;;7.85;3.42;;;;;;;28.00;30.11;102103.26;1817466;79;21083;-67
2022/10/07 08:58:03;;;;;;;8.90;2.98;;;;;;;28.24;30.52;102096.58;1817138;78;21485;-65
2022/10/07 09:00:31;;;;;;;7.75;2.98;;;;;;;28.18;29.66;102091.70;1816511;78;21128;-66
2022/10/07 09:03:06;;;;;;;6.12;3.05;;;;;;;27.97;29.95;102100.83;1816407;79;21112;-66
2022/10/07 09:05:40;;;;;;;5.95;3.55;;;;;;;28.00;29.82;102085.66;1828782;78;21070;-67
2022/10/07 09:08:27;;;;;;;8.90;3.10;;;;;;;27.84;29.91;102088.03;1904002;75;21109;-67
2022/10/07 09:10:58;;;;;;;7.08;4.00;;;;;;;27.82;29.79;102081.91;1896912;75;21046;-66
2022/10/07 09:13:29;;;;;;;12.73;4.03;;;;;;;27.81;30.05;102076.12;1891002;76;21130;-66
2022/10/07 09:16:08;;;;;;;10.08;4.10;;;;;;;27.98;30.17;102074.60;1890057;75;21102;-66
2022/10/07 09:18:46;;;;;;;13.03;5.42;;;;;;;27.91;29.77;102074.33;1890595;76;21500;-66
2022/10/07 09:21:18;;;;;;;13.43;6.67;;;;;;;27.59;29.90;102069.96;1886939;76;21125;-66
2022/10/07 09:23:49;;;;;;;15.63;7.00;;;;;;;27.69;30.32;102063.23;1890697;76;21043;-66
2022/10/07 09:26:18;;;;;;;13.68;6.90;;;;;;;27.85;30.17;102060.84;1889685;76;21049;-67
2022/10/07 09:28:49;;;;;;;15.20;7.20;;;;;;;28.03;29.88;102056.09;1890681;76;21047;-72
2022/10/07 09:31:19;;;;;;;16.80;6.53;;;;;;;27.94;29.83;102052.38;1890616;75;21485;-66
2022/10/07 09:33:53;;;;;;;9.60;4.33;;;;;;;27.98;30.00;102045.70;1837175;76;21140;-65
2022/10/07 09:36:22;;;;;;;8.33;3.50;;;;;;;28.02;29.64;102045.77;1890957;75;21207;-65
2022/10/07 09:38:54;;;;;;;8.50;3.87;;;;;;;27.97;29.48;102045.33;1882195;75;21155;-66
2022/10/07 09:41:37;;;;;;;10.38;5.08;;;;;;;27.96;29.82;102038.70;1880004;75;21050;-67
2022/10/07 09:44:24;;;;;;;13.20;5.28;;;;;;;28.15;30.07;102040.57;1904283;75;21507;-66
2022/10/07 09:46:56;;;;;;;8.53;4.72;;;;;;;28.65;30.14;102034.42;1904043;75;21026;-66
2022/10/07 09:49:31;;;;;;;7.53;3.52;;;;;;;28.78;29.43;102027.32;1904041;75;21046;-67
2022/10/07 09:52:06;;;;;;;10.30;4.15;;;;;;;28.48;28.61;102029.24;1903987;75;21144;-68
2022/10/07 09:54:36;;;;;;;8.53;4.62;;;;;;;28.13;29.17;102021.75;1835320;78;21037;-69
2022/10/07 09:57:06;;;;;;;9.00;4.40;;;;;;;28.04;29.37;102018.05;1893160;75;21074;-69
2022/10/07 09:59:36;;;;;;;7.00;3.60;;;;;;;28.22;29.51;102017.30;1894626;75;21111;-68
2022/10/07 10:02:17;;;;;;;7.83;3.45;;;;;;;28.08;29.29;102015.91;1880791;75;21111;-68
2022/10/07 10:04:57;;;;;;;6.58;3.15;;;;;;;27.98;28.99;102009.64;1875337;76;21092;-68
2022/10/07 10:07:31;;;;;;;6.37;3.33;;;;;;;27.76;28.70;102006.69;1851582;76;21512;-69
2022/10/07 10:10:05;;;;;;;5.08;2.50;;;;;;;27.46;28.54;101994.98;1843551;77;21175;-68
2022/10/07 10:12:37;;;;;;;9.25;3.30;;;;;;;27.06;28.96;101987.78;1756810;81;21067;-68
2022/10/07 10:15:09;;;;;;;6.65;3.27;;;;;;;26.95;29.51;101980.13;1831921;78;21023;-68
2022/10/07 10:17:40;;;;;;;7.03;3.55;;;;;;;27.22;29.79;101984.02;1845492;78;21465;-68
2022/10/07 10:20:28;;;;;;;4.05;2.55;;;;;;;27.26;29.39;101978.75;1844745;78;21066;-68
2022/10/07 10:22:58;;;;;;;6.95;3.27;;;;;;;27.10;29.40;101969.78;1844355;78;21574;-67
2022/10/07 10:28:50;;;;;;;10.18;4.47;;;;;;;26.90;30.07;101968.02;1844331;78;21503;-67
2022/10/07 10:31:25;;;;;;;9.30;4.50;;;;;;;27.08;30.13;101961.46;1845504;77;21521;-68
2022/10/07 10:34:02;;;;;;;17.27;7.30;;;;;;;27.18;30.38;101962.31;1774278;78;21073;-65
2022/10/07 10:36:33;;;;;;;10.90;5.30;;;;;;;27.03;29.96;101952.40;1819723;76;21510;-67
2022/10/07 10:39:08;;;;;;;12.28;6.25;;;;;;;26.89;30.19;101952.30;1846732;76;21037;-67
2022/10/07 10:41:45;;;;;;;12.50;5.87;;;;;;;26.69;30.36;101939.22;1841729;77;21168;-68
2022/10/07 10:44:52;;;;;;;13.90;7.62;;;;;;;26.58;30.35;101939.29;1835316;77;21026;-71
2022/10/07 10:47:55;;;;;;;24.47;11.65;;;;;;;26.57;30.73;101937.56;1817484;79;21473;-69
2022/10/07 10:50:32;;;;;;;22.85;12.20;;;;;;;26.54;30.88;101940.52;1817515;79;21129;-69
2022/10/07 10:53:26;;;;;;;27.15;13.20;;;;;;;26.41;31.17;101932.64;1816877;79;21034;-69
2022/10/07 10:55:59;;;;;;;;;;;;;;;26.22;31.40;101927.16;1830837;77;21055;-69
2022/10/07 10:58:30;;;;;;;21.17;10.05;;;;;;;26.22;31.80;101928.52;1827527;76;20150;-70
2022/10/07 11:01:31;;;;;;;20.95;8.98;;;;;;;26.24;31.74;101921.98;1816528;79;21140;-68
2022/10/07 11:04:17;;;;;;;18.32;8.20;;;;;;;26.32;31.88;101919.95;1848038;78;21082;-70
2022/10/07 11:06:52;;;;;;;13.50;5.95;;;;;;;26.80;31.70;101918.00;1831567;78;21154;-69
2022/10/07 11:09:23;;;;;;;10.80;4.87;;;;;;;26.60;31.15;101917.08;1834138;78;21047;-68
2022/10/07 11:11:52;;;;;;;11.22;5.33;;;;;;;26.27;31.30;101911.43;1831539;78;21040;-71
2022/10/07 11:14:24;;;;;;;13.43;4.80;;;;;;;26.09;31.63;101906.62;1834121;78;21027;-69
2022/10/07 11:16:55;;;;;;;13.13;5.85;;;;;;;25.99;31.78;101903.03;1834193;78;21105;-67
2022/10/07 11:19:39;;;;;;;10.55;5.00;;;;;;;25.99;32.08;101900.33;1825397;77;21215;-68
2022/10/07 11:22:20;;;;;;;7.70;4.28;;;;;;;25.89;32.00;101903.42;1803666;78;21136;-68
2022/10/07 11:24:55;;;;;;;8.50;3.67;;;;;;;25.72;32.25;101892.23;1806379;78;21192;-68
2022/10/07 11:27:31;;;;;;;6.83;2.90;;;;;;;25.71;32.62;101887.84;1819828;78;21124;-66
2022/10/07 11:30:03;;;;;;;11.45;4.03;;;;;;;25.63;32.69;101889.81;1804604;78;21070;-67
2022/10/07 11:32:47;;;;;;;12.88;4.58;;;;;;;25.25;32.70;101883.64;1787215;78;21173;-67
2022/10/07 11:35:18;;;;;;;7.65;3.52;;;;;;;24.77;33.01;101883.48;1804309;79;21266;-67
2022/10/07 11:38:01;;;;;;;12.78;5.75;;;;;;;24.26;33.52;101898.27;1741575;80;21128;-66
2022/10/07 11:40:31;;;;;;;;;;;;;;;23.75;33.89;101887.86;1789905;78;21582;-65
2022/10/07 11:43:11;;;;;;;10.85;4.87;;;;;;;23.44;34.35;101883.50;1787127;80;20268;-73
2022/10/07 11:45:51;;;;;;;11.25;4.47;;;;;;;23.26;34.88;101883.54;1790398;78;21038;-69
2022/10/07 11:48:26;;;;;;;12.33;5.60;;;;;;;23.11;35.32;101885.52;1797120;78;21094;-68
2022/10/07 11:50:58;;;;;;;27.45;8.63;;;;;;;22.93;35.23;101889.06;1801687;78;21161;-69
2022/10/07 11:53:29;;;;;;;23.37;7.87;;;;;;;22.75;35.50;101888.07;1785268;78;21138;-67
2022/10/07 11:56:01;;;;;;;22.40;8.48;;;;;;;22.62;35.47;101888.59;1823989;78;22326;-65